Time;durP1;ratioP1;P1;durP2;ratioP2;P2;SDS_P1;SDS_P2;PMS_P1;PMS_P2;Temp;Humidity;BMP_temperature;BMP_pressure;BME280_temperature;BME280_humidity;BME280_pressure;Samples;Min_cycle;Max_cycle;Signal;HPM_P1;HPM_P2
2022/08/19 00:00:47;;;;;;;;;29.25;25.50;;;;;22.43;69.58;99116.44;6315203;20;3601470;-52
2022/08/19 00:03:17;;;;;;;;;26.67;24.33;;;;;22.30;70.86;99108.00;6316584;20;3587792;-54
2022/08/19 00:05:46;;;;;;;;;25.00;23.33;;;;;22.36;70.30;99110.03;6317314;20;3587969;-52
2022/08/19 00:08:15;;;;;;;;;21.67;21.67;;;;;22.47;70.17;99106.81;6284456;20;3581642;-55
2022/08/19 00:10:45;;;;;;;;;30.50;27.25;;;;;22.41;70.01;99104.84;6285563;20;3604617;-52
2022/08/19 00:13:15;;;;;;;;;26.67;26.67;;;;;22.33;70.55;99096.72;6315254;20;3602393;-51
2022/08/19 00:15:44;;;;;;;;;26.33;25.67;;;;;22.32;70.76;99089.53;6282753;20;3597280;-53
2022/08/19 00:18:13;;;;;;;;;28.67;25.67;;;;;22.22;71.53;99094.41;6286548;20;3602710;-50
2022/08/19 00:20:41;;;;;;;;;25.00;24.67;;;;;22.19;71.47;99092.88;6285226;20;3600389;-54
2022/08/19 00:23:10;;;;;;;;;25.33;24.67;;;;;22.03;72.13;99091.09;6284215;20;3596145;-49
2022/08/19 00:25:39;;;;;;;;;29.00;26.33;;;;;21.88;72.72;99079.25;6282641;20;3582637;-53
2022/08/19 00:28:08;;;;;;;;;25.33;24.67;;;;;21.88;73.43;99081.97;6284614;20;3602848;-53
2022/08/19 00:30:37;;;;;;;;;25.00;24.00;;;;;22.02;72.80;99083.09;6284112;20;3604891;-53
2022/08/19 00:33:07;;;;;;;;;28.67;23.33;;;;;22.04;73.41;99079.16;6286822;20;3607636;-60
2022/08/19 00:35:38;;;;;;;;;25.33;24.33;;;;;22.14;72.93;99082.47;6282965;20;3588818;-60
2022/08/19 00:38:07;;;;;;;;;27.00;25.00;;;;;22.12;73.74;99078.22;6286224;20;3594039;-60
2022/08/19 00:40:35;;;;;;;;;27.00;26.33;;;;;22.03;74.36;99080.16;6285287;20;3603609;-61
2022/08/19 00:43:12;;;;;;;;;22.67;22.67;;;;;22.03;74.67;99090.25;6281049;20;3600353;-60
2022/08/19 00:45:43;;;;;;;;;27.00;26.00;;;;;22.30;73.99;99091.59;6284575;20;3589031;-61
2022/08/19 00:48:12;;;;;;;;;26.67;26.67;;;;;22.68;71.86;99094.31;6286445;20;3593967;-60
2022/08/19 00:50:44;;;;;;;;;25.00;24.67;;;;;22.22;73.27;99108.06;6283666;20;3589898;-61
2022/08/19 00:53:27;;;;;;;;;26.00;26.00;;;;;22.44;73.03;99101.72;6285468;20;3599201;-61
2022/08/19 00:56:01;;;;;;;;;28.67;25.67;;;;;22.28;72.35;99104.63;6284397;20;3587761;-61
2022/08/19 00:58:34;;;;;;;;;24.75;24.75;;;;;21.84;75.00;99103.38;6282266;20;3600239;-60
2022/08/19 01:01:04;;;;;;;;;26.00;24.67;;;;;21.82;75.64;99107.31;6312939;20;3596097;-60
2022/08/19 01:03:33;;;;;;;;;27.00;24.00;;;;;22.25;73.34;99108.56;6289686;20;3582608;-60
2022/08/19 01:06:22;;;;;;;;;30.00;25.67;;;;;22.12;73.27;99109.16;6287354;20;3602339;-60
2022/08/19 01:08:51;;;;;;;;;26.67;26.67;;;;;22.02;73.50;99099.50;6290717;20;3601290;-60
2022/08/19 01:11:20;;;;;;;;;29.67;27.33;;;;;21.67;74.17;99097.19;6288706;20;3593986;-61
2022/08/19 01:13:51;;;;;;;;;29.33;27.67;;;;;21.79;73.94;99094.03;6287343;20;3591029;-60
2022/08/19 01:16:25;;;;;;;;;29.67;28.00;;;;;22.28;71.98;99094.53;6285539;20;3573386;-60
2022/08/19 01:18:56;;;;;;;;;24.33;24.33;;;;;21.86;73.65;99100.47;6277647;20;3587791;-60
2022/08/19 01:21:37;;;;;;;;;32.33;27.00;;;;;21.86;73.88;99084.91;6291315;20;3608565;-60
2022/08/19 01:24:06;;;;;;;;;27.33;27.00;;;;;21.46;75.74;99077.84;6285578;20;3582730;-60
2022/08/19 01:26:43;;;;;;;;;26.00;26.00;;;;;21.29;75.60;99068.00;6286713;20;3598160;-61
2022/08/19 01:29:15;;;;;;;;;28.33;28.33;;;;;21.25;76.63;99060.16;6287204;20;3602328;-60
2022/08/19 01:31:44;;;;;;;;;27.67;26.33;;;;;21.18;76.37;99055.59;6321987;20;3594370;-61
2022/08/19 01:34:12;;;;;;;;;27.67;23.33;;;;;21.35;76.29;99059.06;6287732;20;3595209;-60
2022/08/19 01:36:48;;;;;;;;;30.00;29.33;;;;;21.81;75.00;99070.09;6291079;20;3586768;-60
2022/08/19 01:39:23;;;;;;;;;30.67;29.00;;;;;22.09;73.65;99075.84;6287576;20;3606795;-60
2022/08/19 01:41:54;;;;;;;;;28.00;28.00;;;;;21.62;75.01;99085.09;6285092;20;3601481;-60
2022/08/19 01:44:23;;;;;;;;;30.00;29.67;;;;;21.90;74.97;99085.38;6289367;20;3573132;-60
2022/08/19 01:46:53;;;;;;;;;28.67;26.67;;;;;21.68;75.58;99087.94;6284265;20;3578741;-61
2022/08/19 01:49:26;;;;;;;;;33.33;27.00;;;;;21.32;77.12;99084.00;6287843;20;3605435;-61
2022/08/19 01:51:55;;;;;;;;;27.00;25.00;;;;;21.49;76.56;99077.47;6290478;20;3602297;-61
2022/08/19 01:54:24;;;;;;;;;30.00;28.00;;;;;21.21;78.14;99080.66;6285620;20;3607504;-55
2022/08/19 01:57:11;;;;;;;;;29.67;27.00;;;;;21.14;78.11;99066.00;6283293;20;3596088;-53
2022/08/19 01:59:41;;;;;;;;;30.00;28.33;;;;;20.95;78.65;99060.97;6288620;20;3583668;-52
2022/08/19 02:02:10;;;;;;;;;25.00;23.00;;;;;21.08;78.66;99061.25;6284397;20;3592396;-53
2022/08/19 02:04:39;;;;;;;;;28.67;26.00;;;;;21.02;79.14;99059.25;6288719;20;3584572;-55
2022/08/19 02:07:08;;;;;;;;;33.67;30.00;;;;;21.09;78.38;99052.06;6283952;20;3585790;-54
2022/08/19 02:09:37;;;;;;;;;30.00;28.67;;;;;21.05;79.10;99047.97;6283159;20;3603779;-54
2022/08/19 02:12:08;;;;;;;;;31.33;28.33;;;;;20.95;79.27;99052.78;6288014;20;3593363;-53
2022/08/19 02:14:37;;;;;;;;;27.67;25.67;;;;;20.85;79.43;99052.97;6285013;20;3591927;-53
2022/08/19 02:17:06;;;;;;;;;30.00;29.00;;;;;20.91;80.00;99051.44;6281424;20;3574215;-55
2022/08/19 02:19:35;;;;;;;;;30.33;29.00;;;;;21.14;79.21;99057.81;6285173;20;3601287;-56
2022/08/19 02:22:08;;;;;;;;;32.33;28.33;;;;;21.24;78.02;99058.44;6285605;20;3582549;-50
2022/08/19 02:24:37;;;;;;;;;31.33;29.33;;;;;21.23;78.03;99067.66;6288925;20;3591933;-52
2022/08/19 02:27:06;;;;;;;;;28.67;28.67;;;;;21.39;76.68;99064.03;6287838;20;3606497;-54
2022/08/19 02:29:34;;;;;;;;;32.33;30.00;;;;;21.42;77.20;99076.47;6286517;20;1925421;-53
2022/08/19 02:32:04;;;;;;;;;28.00;26.00;;;;;20.78;79.81;99058.31;6317918;20;3604416;-54
2022/08/19 02:34:33;;;;;;;;;33.67;29.67;;;;;20.60;80.50;99054.94;6286492;20;3587721;-51
2022/08/19 02:37:02;;;;;;;;;29.00;28.00;;;;;20.59;80.65;99036.88;6285786;20;3604378;-53
2022/08/19 02:39:31;;;;;;;;;27.00;26.00;;;;;20.53;80.87;99021.16;6287199;20;3590868;-51
2022/08/19 02:42:01;;;;;;;;;31.25;28.25;;;;;20.31;81.60;99018.16;6286492;20;3612834;-50
2022/08/19 02:44:30;;;;;;;;;31.00;29.00;;;;;20.00;81.52;99003.56;6316447;20;3581522;-51
2022/08/19 02:46:59;;;;;;;;;28.67;27.33;;;;;20.17;81.83;99011.53;6287208;20;3601378;-54
2022/08/19 02:49:28;;;;;;;;;27.00;26.33;;;;;20.26;81.49;99011.53;6288400;20;3598190;-52
2022/08/19 02:52:02;;;;;;;;;28.00;26.67;;;;;20.23;81.89;99003.69;6287101;20;3600247;-51
2022/08/19 02:54:31;;;;;;;;;33.67;30.00;;;;;20.18;82.20;99006.94;6285277;20;3600388;-52
2022/08/19 02:57:00;;;;;;;;;32.00;29.33;;;;;20.26;82.34;99011.53;6286638;20;3593988;-53
2022/08/19 02:59:31;;;;;;;;;26.33;25.33;;;;;20.58;80.34;99027.84;6288288;20;3596093;-51
2022/08/19 03:02:00;;;;;;;;;27.67;26.00;;;;;20.82;79.52;99026.88;6287484;20;3600363;-55
2022/08/19 03:04:29;;;;;;;;;31.67;30.33;;;;;20.94;79.53;99040.19;6285980;20;3590882;-53
2022/08/19 03:06:58;;;;;;;;;30.00;27.67;;;;;21.21;78.28;99042.41;6281235;20;3610688;-50
2022/08/19 03:09:39;;;;;;;;;29.67;29.67;;;;;21.24;78.13;99052.97;6284507;20;2846225;-49
2022/08/19 03:12:08;;;;;;;;;33.00;29.00;;;;;21.40;76.99;99052.06;6315580;20;3585780;-52
2022/08/19 03:14:38;;;;;;;;;33.67;30.00;;;;;21.38;77.37;99059.63;6285809;20;3592995;-53
2022/08/19 03:17:07;;;;;;;;;30.33;26.33;;;;;21.31;76.85;99071.41;6283740;20;3596115;-54
2022/08/19 03:19:36;;;;;;;;;27.67;26.00;;;;;21.13;77.20;99077.94;6285343;20;3596212;-51
2022/08/19 03:22:05;;;;;;;;;35.33;30.33;;;;;21.01;78.29;99085.69;6290046;20;3588767;-52
2022/08/19 03:24:34;;;;;;;;;28.33;27.67;;;;;21.01;78.47;99080.22;6283841;20;3600209;-52
2022/08/19 03:27:04;;;;;;;;;28.67;27.00;;;;;20.57;80.06;99082.56;6287852;20;3597085;-54
2022/08/19 03:29:33;;;;;;;;;30.00;27.33;;;;;20.45;80.91;99083.91;6284142;20;3590833;-51
2022/08/19 03:32:11;;;;;;;;;28.00;26.33;;;;;20.47;80.40;99073.69;6283087;20;3593991;-50
2022/08/19 03:35:00;;;;;;;;;27.67;27.00;;;;;20.56;80.23;99091.75;6277558;20;3595116;-53
2022/08/19 03:37:29;;;;;;;;;27.00;26.00;;;;;20.91;79.58;99093.22;6283263;20;3596099;-55
2022/08/19 03:39:57;;;;;;;;;25.00;25.00;;;;;21.20;77.14;99102.69;6279054;20;3583600;-55
2022/08/19 03:42:26;;;;;;;;;28.67;26.67;;;;;21.36;75.98;99104.50;6281250;20;3602615;-56
2022/08/19 03:45:07;;;;;;;;;27.67;26.00;;;;;21.01;77.99;99104.78;6288120;20;3589837;-54
2022/08/19 03:47:36;;;;;;;;;28.33;25.33;;;;;20.79;78.98;99103.66;6284000;20;3597073;-53
2022/08/19 03:50:06;;;;;;;;;26.67;25.67;;;;;21.05;77.54;99094.38;6284974;20;3590970;-52
2022/08/19 03:52:35;;;;;;;;;25.00;22.67;;;;;21.13;76.14;99105.25;6284492;20;3586887;-56
2022/08/19 03:55:05;;;;;;;;;29.00;27.67;;;;;20.99;77.25;99106.00;6283221;20;3601288;-52
2022/08/19 03:57:34;;;;;;;;;29.33;28.33;;;;;20.82;78.26;99114.22;6284590;20;3587724;-55
2022/08/19 04:00:06;;;;;;;;;24.67;23.67;;;;;20.59;79.08;99103.19;6285817;20;3594124;-55
2022/08/19 04:02:43;;;;;;;;;29.00;28.00;;;;;21.32;75.68;99108.59;6285235;20;3590177;-52
2022/08/19 04:05:29;;;;;;;;;28.67;28.67;;;;;21.19;76.25;99110.00;6285124;20;3587789;-53
2022/08/19 04:07:58;;;;;;;;;29.00;24.67;;;;;21.38;74.97;99108.78;6280645;20;3595039;-54
2022/08/19 04:10:29;;;;;;;;;24.33;22.00;;;;;20.86;78.20;99120.19;6314937;20;3587754;-54
2022/08/19 04:12:57;;;;;;;;;24.00;24.00;;;;;20.98;77.58;99112.47;6280450;20;3598226;-53
2022/08/19 04:15:28;;;;;;;;;26.33;22.33;;;;;20.59;78.45;99102.34;6281796;20;3583667;-53
2022/08/19 04:17:57;;;;;;;;;25.00;23.00;;;;;21.20;76.82;99113.59;6276185;20;3587756;-51
2022/08/19 04:20:26;;;;;;;;;27.33;27.33;;;;;21.48;75.25;99119.47;6279231;20;3586692;-55
2022/08/19 04:22:54;;;;;;;;;28.67;25.67;;;;;21.57;74.25;99134.78;6283722;20;3590893;-52
2022/08/19 04:25:24;;;;;;;;;26.00;23.50;;;;;21.44;75.72;99129.06;6275917;20;3602451;-56
2022/08/19 04:27:52;;;;;;;;;29.67;26.67;;;;;21.67;74.21;99134.59;6309704;20;3588806;-57
2022/08/19 04:30:22;;;;;;;;;22.00;22.00;;;;;21.37;75.64;99133.50;6281733;20;3581635;-55
2022/08/19 04:32:51;;;;;;;;;28.00;25.00;;;;;21.43;76.18;99144.59;6285363;20;3593974;-51
2022/08/19 04:35:19;;;;;;;;;26.67;25.33;;;;;21.26;77.44;99138.31;6282993;20;3591909;-53
2022/08/19 04:37:52;;;;;;;;;30.00;26.67;;;;;21.23;77.55;99127.75;6278655;20;3590831;-65
2022/08/19 04:43:15;;;;;;;;;28.50;27.50;;;;;21.41;76.65;99126.69;6292626;20;3609118;-65
2022/08/19 04:45:46;;;;;;;;;27.50;24.50;;;;;21.95;73.75;99132.16;6319678;20;3596059;-65
2022/08/19 04:48:17;;;;;;;;;30.33;27.67;;;;;21.85;74.69;99142.47;6319296;20;3591992;-65
2022/08/19 04:50:58;;;;;;;;;27.00;25.00;;;;;22.20;73.74;99159.38;6321450;20;3600433;-65
2022/08/19 04:53:30;;;;;;;;;25.33;25.33;;;;;22.02;74.13;99160.50;6322455;20;3596220;-65
2022/08/19 04:56:17;;;;;;;;;25.67;25.00;;;;;22.47;71.94;99155.22;6286322;20;3582582;-65
2022/08/19 04:58:49;;;;;;;;;22.67;22.67;;;;;22.36;72.61;99145.56;6287851;20;3587703;-65
2022/08/19 05:01:29;;;;;;;;;22.67;20.00;;;;;22.63;71.38;99141.41;6289121;20;3562764;-65
2022/08/19 05:04:01;;;;;;;;;21.00;21.00;;;;;22.31;72.45;99131.59;6289003;20;3580543;-65
2022/08/19 05:06:33;;;;;;;;;25.00;23.00;;;;;22.29;73.02;99133.66;6290565;20;3583588;-66
2022/08/19 05:09:04;;;;;;;;;25.33;22.33;;;;;22.33;72.30;99124.91;6287258;20;3585689;-65
2022/08/19 05:11:38;;;;;;;;;24.00;21.67;;;;;22.67;72.06;99125.44;6288294;20;3585748;-66
2022/08/19 05:14:12;;;;;;;;;21.00;20.00;;;;;22.95;70.34;99145.69;6284861;20;2832608;-65
2022/08/19 05:16:41;;;;;;;;;24.33;22.67;;;;;23.21;69.41;99138.94;6286971;20;3581504;-65
2022/08/19 05:24:48;;;;;;;;;19.00;19.00;;;;;24.38;65.60;99149.84;6290895;20;3575369;-66
2022/08/19 05:27:37;;;;;;;;;17.00;17.00;;;;;24.80;63.04;99160.97;6285751;20;2837847;-66
2022/08/19 05:30:08;;;;;;;;;22.33;18.67;;;;;24.03;66.26;99154.31;6289125;20;3575355;-66
2022/08/19 05:32:38;;;;;;;;;17.33;17.33;;;;;24.01;66.44;99156.41;6287178;20;3571152;-66
2022/08/19 05:35:08;;;;;;;;;18.50;18.50;;;;;24.26;66.40;99157.72;6285920;20;2830473;-66
2022/08/19 05:37:36;;;;;;;;;17.33;15.00;;;;;24.45;64.40;99155.41;6285964;20;3552502;-66
2022/08/19 05:40:06;;;;;;;;;17.00;16.00;;;;;24.58;63.93;99158.25;6289287;20;3557602;-66
2022/08/19 05:42:35;;;;;;;;;21.50;18.00;;;;;24.64;63.87;99149.22;6286870;20;2850359;-66
2022/08/19 05:45:06;;;;;;;;;13.50;13.50;;;;;24.81;63.83;99157.19;6285429;20;2797127;-66
2022/08/19 05:47:35;;;;;;;;;17.33;16.00;;;;;24.71;63.49;99158.38;6285099;20;3561696;-66
2022/08/19 05:50:09;;;;;;;;;15.00;13.67;;;;;24.75;64.00;99154.19;6318719;20;3539923;-66
2022/08/19 05:52:39;;;;;;;;;19.67;17.00;;;;;24.48;64.86;99146.75;6317557;20;3576120;-66
2022/08/19 05:55:13;;;;;;;;;18.33;15.67;;;;;24.80;64.29;99156.31;6284249;20;3557643;-66
2022/08/19 05:57:42;;;;;;;;;18.00;18.00;;;;;24.84;64.10;99143.91;6280798;20;2842008;-66
2022/08/19 06:00:13;;;;;;;;;20.50;18.00;;;;;25.02;63.11;99140.66;6316966;20;2830567;-64
2022/08/19 06:02:41;;;;;;;;;16.00;14.67;;;;;25.11;63.11;99142.16;6290570;20;3552298;-66
2022/08/19 06:05:11;;;;;;;;;19.33;17.00;;;;;25.45;62.18;99148.75;6289295;20;3558630;-63
2022/08/19 06:07:40;;;;;;;;;17.00;14.00;;;;;25.83;60.61;99162.03;6286033;20;2821104;-63
2022/08/19 06:10:12;;;;;;;;;15.67;15.67;;;;;26.69;58.30;99166.91;6288338;20;3553385;-64
2022/08/19 06:12:40;;;;;;;;;17.00;16.00;;;;;26.53;57.91;99170.06;6291181;20;3555511;-64
2022/08/19 06:15:13;;;;;;;;;20.50;16.50;;;;;26.20;59.67;99165.34;6284329;20;2830613;-59
2022/08/19 06:17:46;;;;;;;;;15.00;15.00;;;;;26.13;59.83;99170.81;6286703;20;3537728;-58
2022/08/19 06:20:17;;;;;;;;;15.50;15.00;;;;;26.20;58.83;99168.09;6313628;20;2812790;-58
2022/08/19 06:23:06;;;;;;;;;15.33;14.33;;;;;26.41;57.64;99175.31;6288884;20;3539826;-56
2022/08/19 06:25:35;;;;;;;;;13.00;13.00;;;;;26.19;58.82;99166.38;6318677;20;2496107;-58
2022/08/19 06:28:04;;;;;;;;;15.67;14.00;;;;;26.70;57.84;99171.38;6316725;20;3530469;-59
2022/08/19 06:30:42;;;;;;;;;17.00;14.50;;;;;26.85;56.31;99173.88;6281153;20;2814830;-59
2022/08/19 06:33:11;;;;;;;;;15.00;13.50;;;;;26.87;55.75;99174.53;6286093;20;2800364;-61
2022/08/19 06:35:41;;;;;;;;;14.67;14.00;;;;;27.57;54.74;99186.72;6286197;20;3525554;-52
2022/08/19 06:38:10;;;;;;;;;14.00;12.67;;;;;28.07;53.35;99183.38;6283177;20;3512797;-52
2022/08/19 06:40:39;;;;;;;;;15.00;15.00;;;;;27.96;52.91;99184.06;6285459;20;2812792;-48
2022/08/19 06:43:07;;;;;;;;;16.00;14.50;;;;;29.38;49.37;99183.66;6285561;20;2810662;-62
2022/08/19 06:45:38;;;;;;;;;14.00;14.00;;;;;31.01;45.24;99195.75;6288663;20;3537835;-59
2022/08/19 06:48:07;;;;;;;;;12.67;12.67;;;;;31.02;44.24;99191.91;6319988;20;2484073;-59
2022/08/19 06:50:36;;;;;;;;;14.67;11.00;;;;;31.81;43.31;99188.72;6316858;20;2483585;-59
2022/08/19 06:53:07;;;;;;;;;15.00;13.00;;;;;33.10;40.53;99198.41;6315159;20;3519027;-58
2022/08/19 06:55:35;;;;;;;;;13.00;13.00;;;;;33.88;39.34;99202.91;6318471;20;2483682;-59
2022/08/19 06:58:05;;;;;;;;;12.00;12.00;;;;;32.91;40.34;99195.84;6314475;20;2780485;-59
2022/08/19 07:00:34;;;;;;;;;12.33;12.00;;;;;31.36;43.21;99194.91;6319389;20;3514802;-59
2022/08/19 07:03:03;;;;;;;;;16.33;13.67;;;;;32.93;40.16;99199.22;6317851;20;2483652;-59
2022/08/19 07:05:42;;;;;;;;;13.00;12.00;;;;;32.74;40.74;99197.81;6319615;20;3528465;-59
2022/08/19 07:08:14;;;;;;;;;14.33;14.33;;;;;33.78;38.69;99196.38;6320574;20;3542274;-59
2022/08/19 07:10:45;;;;;;;;;12.67;11.67;;;;;31.76;43.35;99183.06;6285469;20;2487919;-60
2022/08/19 07:13:14;;;;;;;;;17.33;13.00;;;;;32.46;41.42;99188.38;6317873;20;3536801;-61
2022/08/19 07:15:43;;;;;;;;;16.33;14.00;;;;;33.78;39.21;99186.09;6314515;20;3538891;-60
2022/08/19 07:18:11;;;;;;;;;14.00;10.00;;;;;33.07;41.24;99187.78;6288635;20;2487729;-58
2022/08/19 07:20:42;;;;;;;;;17.00;14.67;;;;;33.10;40.32;99187.28;6315056;20;3550279;-62
2022/08/19 07:23:12;;;;;;;;;16.50;13.50;;;;;29.97;47.46;99168.31;6283604;20;2806501;-61
2022/08/19 07:25:44;;;;;;;;;8.00;8.00;;;;;29.78;47.59;99175.78;6287522;20;2748235;-62
2022/08/19 07:28:20;;;;;;;;;7.33;5.67;;;;;30.93;45.35;99176.69;6317332;20;2739935;-61
2022/08/19 07:30:53;;;;;;;;;15.50;11.50;;;;;34.98;36.75;99182.38;6315893;20;2792978;-61
2022/08/19 07:33:22;;;;;;;;;15.67;13.33;;;;;34.78;36.91;99179.41;6288516;20;2483678;-62
2022/08/19 07:35:55;;;;;;;;;14.00;12.50;;;;;34.13;37.67;99175.69;6315250;20;2795149;-62
2022/08/19 07:38:24;;;;;;;;;13.67;13.67;;;;;30.90;44.59;99174.41;6290642;20;2805977;-62
2022/08/19 07:40:53;;;;;;;;;16.00;13.33;;;;;30.01;46.63;99168.66;6318227;20;2479557;-63
2022/08/19 07:43:25;;;;;;;;;13.00;13.00;;;;;30.35;46.01;99172.69;6318641;20;3508552;-61
2022/08/19 07:46:02;;;;;;;;;10.67;10.67;;;;;31.10;44.69;99177.69;6316556;20;3512719;-61
2022/08/19 07:48:32;;;;;;;;;10.33;10.33;;;;;30.78;45.27;99179.88;6315982;20;3513821;-62
2022/08/19 07:51:07;;;;;;;;;11.33;11.33;;;;;31.19;44.32;99187.31;6316564;20;3523188;-60
2022/08/19 07:53:38;;;;;;;;;13.33;12.33;;;;;30.70;44.79;99172.78;6311655;20;3514877;-61
2022/08/19 07:56:07;;;;;;;;;6.00;6.00;;;;;30.68;45.27;99168.56;6284921;20;2741966;-61
2022/08/19 07:58:42;;;;;;;;;15.00;13.00;;;;;30.92;44.40;99175.03;6313885;20;2784634;-57
2022/08/19 08:01:17;;;;;;;;;13.00;12.00;;;;;31.82;43.12;99184.84;6315547;20;2795098;-62
2022/08/19 08:09:34;;;;;;;;;10.00;9.00;;;;;31.70;43.52;99193.19;6282776;20;3501283;-61
2022/08/19 08:12:15;;;;;;;;;15.33;14.67;;;;;32.46;41.94;99191.16;6316936;20;3544019;-61
2022/08/19 08:15:11;;;;;;;;;11.67;11.00;;;;;31.82;41.61;99173.75;6282191;20;3507533;-60
2022/08/19 08:17:40;;;;;;;;;14.00;13.50;;;;;32.13;41.45;99175.25;6280278;20;2806625;-60
2022/08/19 08:20:19;;;;;;;;;12.00;10.00;;;;;32.07;41.54;99170.66;6282511;20;3511161;-60
2022/08/19 08:25:37;;;;;;;;;13.33;13.33;;;;;32.33;40.74;99169.22;6285953;20;3521194;-60
2022/08/19 08:28:08;;;;;;;;;13.67;11.00;;;;;32.60;40.63;99169.50;6313900;20;3520152;-61
2022/08/19 08:30:47;;;;;;;;;12.50;12.50;;;;;32.78;40.42;99179.50;6286267;20;2804432;-61
2022/08/19 08:33:25;;;;;;;;;13.33;10.67;;;;;32.39;40.72;99172.94;6283723;20;3511774;-61
2022/08/19 08:36:05;;;;;;;;;14.50;12.50;;;;;32.67;40.50;99174.88;6310285;20;2809720;-61
2022/08/19 08:38:34;;;;;;;;;10.00;10.00;;;;;32.67;40.21;99169.31;6285518;20;3511728;-61
2022/08/19 08:41:53;;;;;;;;;11.00;10.00;;;;;32.81;39.26;99176.25;6313810;20;3513781;-61
2022/08/19 08:44:50;;;;;;;;;11.50;11.00;;;;;33.51;38.71;99183.16;6317776;20;2487770;-61
2022/08/19 08:47:23;;;;;;;;;10.67;10.00;;;;;33.48;37.50;99185.63;6306411;20;3514076;-61
2022/08/19 08:50:43;;;;;;;;;4.67;3.67;;;;;33.20;38.31;99191.09;6310342;20;2750328;-62
2022/08/19 08:53:19;;;;;;;;;11.00;11.00;;;;;33.48;37.34;99188.44;6312470;20;2483748;-62
2022/08/19 08:56:05;;;;;;;;;10.00;9.00;;;;;33.11;38.39;99177.84;6317775;20;2772141;-63
2022/08/19 08:59:03;;;;;;;;;9.67;9.67;;;;;33.72;36.62;99187.09;6314247;20;2483640;-63
2022/08/19 09:01:32;;;;;;;;;10.33;10.00;;;;;33.74;36.00;99189.66;6310872;20;3515944;-62
2022/08/19 09:04:05;;;;;;;;;9.67;7.00;;;;;33.78;36.19;99191.66;6283616;20;2746119;-63
2022/08/19 09:06:55;;;;;;;;;9.33;9.33;;;;;34.08;35.79;99185.66;6314216;20;3488753;-63
2022/08/19 09:09:39;;;;;;;;;10.00;10.00;;;;;33.36;35.72;99182.94;6317905;20;2475358;-63
2022/08/19 09:12:47;;;;;;;;;9.00;9.00;;;;;34.60;34.07;99184.28;6308503;20;3461873;-62
2022/08/19 09:15:29;;;;;;;;;13.00;11.33;;;;;34.24;34.97;99189.44;6313764;20;2483566;-62
2022/08/19 09:18:06;;;;;;;;;7.00;7.00;;;;;33.63;35.80;99177.53;6320932;20;2750274;-63
2022/08/19 09:20:34;;;;;;;;;11.67;11.67;;;;;34.42;35.66;99179.06;6312621;20;3501257;-62
2022/08/19 09:23:10;;;;;;;;;9.00;8.00;;;;;34.61;34.22;99177.59;6316796;20;3455427;-62
2022/08/19 09:25:39;;;;;;;;;11.67;9.00;;;;;34.54;33.56;99182.50;6316414;20;3490964;-60
2022/08/19 09:28:10;;;;;;;;;10.33;10.33;;;;;34.45;34.26;99172.94;6317827;20;3516986;-62
2022/08/19 09:30:52;;;;;;;;;11.00;9.67;;;;;34.61;34.02;99174.78;6283951;20;3501311;-61
2022/08/19 09:33:20;;;;;;;;;13.67;10.00;;;;;34.14;34.83;99161.47;6287770;20;2479554;-60
2022/08/19 09:35:49;;;;;;;;;10.67;10.67;;;;;34.64;34.17;99154.75;6316380;20;3508540;-61
2022/08/19 09:38:22;;;;;;;;;11.33;11.00;;;;;33.91;34.62;99156.16;6289550;20;2485786;-62
2022/08/19 09:40:50;;;;;;;;;8.67;8.67;;;;;34.39;34.51;99162.81;6319450;20;3458734;-60
2022/08/19 09:43:19;;;;;;;;;12.33;12.33;;;;;34.13;34.78;99150.59;6322575;20;3517957;-61
2022/08/19 09:46:09;;;;;;;;;12.00;12.00;;;;;34.70;34.26;99161.19;6320405;20;2483602;-61
2022/08/19 09:48:39;;;;;;;;;14.33;12.00;;;;;35.42;33.51;99162.59;6319429;20;2483698;-60
2022/08/19 09:51:22;;;;;;;;;9.67;8.67;;;;;34.88;33.35;99159.97;6317474;20;3469110;-60
2022/08/19 09:53:57;;;;;;;;;9.67;9.67;;;;;35.10;33.01;99162.66;6321945;20;2485696;-60
2022/08/19 09:56:25;;;;;;;;;14.67;13.00;;;;;35.07;32.69;99150.09;6322799;20;3499170;-60
2022/08/19 09:58:54;;;;;;;;;9.00;9.00;;;;;35.13;32.39;99154.59;6320832;20;2760695;-60
2022/08/19 10:01:27;;;;;;;;;11.00;10.00;;;;;35.14;32.37;99147.91;6319718;20;2786702;-64
2022/08/19 10:03:59;;;;;;;;;9.33;8.00;;;;;35.40;31.81;99145.28;6286253;20;3473229;-63
2022/08/19 10:06:32;;;;;;;;;13.33;12.00;;;;;36.00;31.44;99148.66;6321886;20;3505481;-64
2022/08/19 10:09:17;;;;;;;;;12.67;12.67;;;;;35.71;31.65;99139.88;6322284;20;3509649;-67
2022/08/19 10:12:04;;;;;;;;;12.00;12.00;;;;;36.08;31.07;99142.56;6321507;20;2789948;-63
2022/08/19 10:14:34;;;;;;;;;11.67;10.00;;;;;35.71;31.50;99137.09;6323774;20;3512863;-64
2022/08/19 10:17:03;;;;;;;;;10.00;10.00;;;;;35.72;31.12;99138.75;6316345;20;3499390;-65
2022/08/19 10:19:48;;;;;;;;;11.67;9.67;;;;;35.67;30.79;99133.97;6289041;20;2469141;-65
2022/08/19 10:22:23;;;;;;;;;8.67;8.67;;;;;35.53;32.01;99122.44;6319641;20;2750295;-65
2022/08/19 10:24:53;;;;;;;;;9.33;8.00;;;;;35.82;31.21;99120.06;6323018;20;2758627;-64
2022/08/19 10:27:22;;;;;;;;;13.00;12.00;;;;;35.42;31.70;99109.56;6320781;20;3504923;-64
2022/08/19 10:29:53;;;;;;;;;12.00;12.00;;;;;35.59;31.52;99107.41;6315606;20;3515878;-62
2022/08/19 10:32:23;;;;;;;;;13.00;12.50;;;;;36.09;30.96;99105.09;6282008;20;2793484;-63
2022/08/19 10:35:07;;;;;;;;;11.33;11.33;;;;;36.06;30.08;99125.19;6289154;20;3520066;-62
2022/08/19 10:37:38;;;;;;;;;14.00;11.67;;;;;35.44;31.11;99115.69;6315942;20;3516924;-63
2022/08/19 10:40:25;;;;;;;;;12.33;10.67;;;;;35.67;30.87;99117.22;6283896;20;2479445;-63
2022/08/19 10:42:55;;;;;;;;;14.00;14.00;;;;;35.72;30.94;99113.63;6315262;20;3508586;-61
2022/08/19 10:45:25;;;;;;;;;6.33;6.33;;;;;35.52;31.49;99114.31;6314479;20;2744123;-66
2022/08/19 10:47:56;;;;;;;;;12.00;12.00;;;;;36.16;30.71;99110.44;6313675;20;3495058;-66
2022/08/19 10:53:13;;;;;;;;;17.00;13.00;;;;;35.93;31.12;99098.59;6307933;20;2807699;-60
2022/08/19 10:58:31;;;;;;;;;11.67;11.67;;;;;36.18;30.30;99106.25;6314231;20;3515908;-64
2022/08/19 11:00:59;;;;;;;;;11.00;10.00;;;;;36.09;30.51;99101.47;6319729;20;3505427;-63
2022/08/19 11:03:29;;;;;;;;;9.00;8.00;;;;;36.14;30.13;99107.06;6318296;20;2485677;-63
2022/08/19 11:06:05;;;;;;;;;13.00;11.00;;;;;36.47;30.31;99105.72;6314944;20;3506487;-63
2022/08/19 11:08:43;;;;;;;;;12.00;11.00;;;;;36.46;29.82;99106.81;6314672;20;3524295;-63
2022/08/19 11:11:13;;;;;;;;;8.00;8.00;;;;;36.36;30.42;99102.03;6291433;20;2748998;-63
2022/08/19 11:13:43;;;;;;;;;10.00;9.33;;;;;36.44;29.88;99104.31;6312149;20;3488811;-63
2022/08/19 11:16:18;;;;;;;;;13.33;10.67;;;;;36.68;29.52;99099.03;6315020;20;3511716;-63
2022/08/19 11:18:52;;;;;;;;;12.33;10.67;;;;;36.26;29.14;99096.47;6315849;20;3506556;-63
2022/08/19 11:21:33;;;;;;;;;9.67;9.67;;;;;36.42;29.43;99094.53;6309235;20;3493037;-63
2022/08/19 11:24:09;;;;;;;;;10.00;10.00;;;;;36.34;30.30;99086.66;6314473;20;3512916;-60
2022/08/19 11:26:39;;;;;;;;;15.67;10.67;;;;;37.14;29.03;99089.75;6314907;20;2483800;-61
2022/08/19 11:29:12;;;;;;;;;11.00;11.00;;;;;37.17;29.15;99083.56;6320053;20;2483601;-61
2022/08/19 11:31:47;;;;;;;;;11.00;10.33;;;;;37.29;29.18;99075.69;6313916;20;3504461;-61
2022/08/19 11:34:22;;;;;;;;;11.33;9.67;;;;;37.02;29.30;99073.22;6315608;20;3504395;-61
2022/08/19 11:36:51;;;;;;;;;12.33;9.00;;;;;37.00;28.24;99077.44;6314378;20;3484643;-62
2022/08/19 11:39:22;;;;;;;;;9.00;8.00;;;;;36.94;28.97;99079.38;6312998;20;3457553;-61
2022/08/19 11:41:51;;;;;;;;;3.00;3.00;;;;;36.99;29.06;99078.53;6315784;20;2749669;-60
2022/08/19 11:44:19;;;;;;;;;8.00;7.00;;;;;36.60;29.37;99081.94;6313327;20;2728390;-61
2022/08/19 11:46:48;;;;;;;;;7.33;7.33;;;;;37.51;29.26;99085.72;6315014;20;2483589;-61
2022/08/19 11:49:19;;;;;;;;;9.33;9.33;;;;;37.27;27.43;99091.94;6312514;20;3482591;-60
2022/08/19 11:51:50;;;;;;;;;11.00;10.00;;;;;36.91;28.53;99086.38;6321117;20;2784646;-61